sensor_id;sensor_type;location;lat;lon;timestamp;pressure;altitude;pressure_sealevel;temperature;humidity
15405;BME280;7801;48.124;11.590;2024-03-23T00:52:10;94871.53;;;12.47;68.78
15405;BME280;7801;48.124;11.590;2024-03-23T00:54:36;94857.13;;;12.30;70.04
15405;BME280;7801;48.124;11.590;2024-03-23T00:57:02;94858.84;;;12.35;69.65
15405;BME280;7801;48.124;11.590;2024-03-23T00:59:29;94855.72;;;12.33;69.31
15405;BME280;7801;48.124;11.590;2024-03-23T01:01:56;94851.66;;;12.35;68.98
15405;BME280;7801;48.124;11.590;2024-03-23T01:04:21;94851.66;;;12.27;69.39
15405;BME280;7801;48.124;11.590;2024-03-23T01:06:48;94844.19;;;12.20;68.33
15405;BME280;7801;48.124;11.590;2024-03-23T01:09:15;94833.22;;;12.22;67.69
15405;BME280;7801;48.124;11.590;2024-03-23T01:11:41;94830.06;;;12.37;67.00
15405;BME280;7801;48.124;11.590;2024-03-23T01:14:08;94830.06;;;12.46;66.44
15405;BME280;7801;48.124;11.590;2024-03-23T01:16:33;94819.53;;;12.49;65.45
15405;BME280;7801;48.124;11.590;2024-03-23T01:18:59;94824.38;;;12.56;64.64
15405;BME280;7801;48.124;11.590;2024-03-23T01:21:24;94819.34;;;12.63;64.75
15405;BME280;7801;48.124;11.590;2024-03-23T01:23:49;94822.03;;;12.63;63.91
15405;BME280;7801;48.124;11.590;2024-03-23T01:26:15;94822.50;;;12.56;64.02
15405;BME280;7801;48.124;11.590;2024-03-23T01:28:41;94824.50;;;12.68;63.83
15405;BME280;7801;48.124;11.590;2024-03-23T01:31:06;94819.16;;;12.68;63.93
15405;BME280;7801;48.124;11.590;2024-03-23T01:33:31;94817.94;;;12.65;63.96
15405;BME280;7801;48.124;11.590;2024-03-23T01:35:57;94815.91;;;12.62;63.77
15405;BME280;7801;48.124;11.590;2024-03-23T01:38:22;94816.69;;;12.63;64.29
15405;BME280;7801;48.124;11.590;2024-03-23T01:40:47;94810.28;;;12.64;64.09
15405;BME280;7801;48.124;11.590;2024-03-23T01:43:13;94809.81;;;12.62;64.34
15405;BME280;7801;48.124;11.590;2024-03-23T01:45:38;94812.50;;;12.53;63.87
15405;BME280;7801;48.124;11.590;2024-03-23T01:48:04;94801.69;;;12.50;64.12
15405;BME280;7801;48.124;11.590;2024-03-23T01:50:30;94804.81;;;12.52;64.94
15405;BME280;7801;48.124;11.590;2024-03-23T01:53:02;94799.34;;;12.48;64.56
15405;BME280;7801;48.124;11.590;2024-03-23T01:55:31;94805.44;;;12.49;65.18
15405;BME280;7801;48.124;11.590;2024-03-23T01:57:57;94793.72;;;12.50;64.74
15405;BME280;7801;48.124;11.590;2024-03-23T02:00:22;94796.53;;;12.53;64.23
15405;BME280;7801;48.124;11.590;2024-03-23T02:02:48;94792.66;;;12.33;64.91
15405;BME280;7801;48.124;11.590;2024-03-23T02:05:14;94788.75;;;12.39;65.16
15405;BME280;7801;48.124;11.590;2024-03-23T02:07:41;94789.22;;;12.42;64.16
15405;BME280;7801;48.124;11.590;2024-03-23T02:10:07;94781.41;;;12.36;64.87
15405;BME280;7801;48.124;11.590;2024-03-23T02:12:34;94781.25;;;12.42;64.62
15405;BME280;7801;48.124;11.590;2024-03-23T02:15:00;94774.81;;;12.43;64.94
15405;BME280;7801;48.124;11.590;2024-03-23T02:17:27;94769.97;;;12.45;65.55
15405;BME280;7801;48.124;11.590;2024-03-23T02:19:54;94771.22;;;12.38;65.03
15405;BME280;7801;48.124;11.590;2024-03-23T02:22:19;94771.19;;;12.47;65.16
15405;BME280;7801;48.124;11.590;2024-03-23T02:24:45;94769.12;;;12.53;65.07
15405;BME280;7801;48.124;11.590;2024-03-23T02:27:11;94764.91;;;12.52;64.76
15405;BME280;7801;48.124;11.590;2024-03-23T02:29:36;94758.50;;;12.53;65.40
15405;BME280;7801;48.124;11.590;2024-03-23T02:32:02;94759.28;;;12.53;65.55
15405;BME280;7801;48.124;11.590;2024-03-23T02:34:27;94754.41;;;12.55;66.06
15405;BME280;7801;48.124;11.590;2024-03-23T02:36:52;94747.91;;;12.44;66.02
15405;BME280;7801;48.124;11.590;2024-03-23T02:39:18;94755.09;;;12.44;66.04
15405;BME280;7801;48.124;11.590;2024-03-23T02:41:44;94746.91;;;12.49;66.03
15405;BME280;7801;48.124;11.590;2024-03-23T02:44:09;94735.94;;;12.59;65.68
15405;BME280;7801;48.124;11.590;2024-03-23T02:46:37;94742.22;;;12.54;66.15
15405;BME280;7801;48.124;11.590;2024-03-23T02:49:05;94730.31;;;12.52;66.08
15405;BME280;7801;48.124;11.590;2024-03-23T02:51:30;94726.41;;;12.49;66.04
15405;BME280;7801;48.124;11.590;2024-03-23T02:53:57;94732.66;;;12.53;65.77
15405;BME280;7801;48.124;11.590;2024-03-23T02:56:23;94731.41;;;12.51;66.15
15405;BME280;7801;48.124;11.590;2024-03-23T02:58:48;94731.16;;;12.44;66.75
15405;BME280;7801;48.124;11.590;2024-03-23T03:01:13;94729.75;;;12.37;66.72
15405;BME280;7801;48.124;11.590;2024-03-23T03:03:39;94732.09;;;12.39;66.35
15405;BME280;7801;48.124;11.590;2024-03-23T03:06:04;94724.47;;;12.29;66.46
15405;BME280;7801;48.124;11.590;2024-03-23T03:08:30;94719.16;;;12.29;66.62
15405;BME280;7801;48.124;11.590;2024-03-23T03:10:55;94726.69;;;12.18;67.22
15405;BME280;7801;48.124;11.590;2024-03-23T03:13:20;94721.06;;;12.20;67.16
15405;BME280;7801;48.124;11.590;2024-03-23T03:15:46;94724.97;;;12.22;67.42
15405;BME280;7801;48.124;11.590;2024-03-23T03:18:11;94718.69;;;12.27;66.64
15405;BME280;7801;48.124;11.590;2024-03-23T03:20:38;94710.81;;;12.01;67.92
15405;BME280;7801;48.124;11.590;2024-03-23T03:23:05;94713.16;;;12.02;68.21
15405;BME280;7801;48.124;11.590;2024-03-23T03:25:30;94711.13;;;11.91;68.82
15405;BME280;7801;48.124;11.590;2024-03-23T03:27:57;94708.16;;;12.01;68.47
15405;BME280;7801;48.124;11.590;2024-03-23T03:30:22;94702.78;;;12.18;67.80
15405;BME280;7801;48.124;11.590;2024-03-23T03:32:49;94701.72;;;12.02;68.06
15405;BME280;7801;48.124;11.590;2024-03-23T03:35:14;94705.94;;;12.03;68.30
15405;BME280;7801;48.124;11.590;2024-03-23T03:37:40;94707.03;;;12.02;68.51
15405;BME280;7801;48.124;11.590;2024-03-23T03:40:05;94696.44;;;11.93;68.46
15405;BME280;7801;48.124;11.590;2024-03-23T03:42:35;94693.47;;;11.69;69.67
15405;BME280;7801;48.124;11.590;2024-03-23T03:45:03;94695.84;;;11.53;70.34
15405;BME280;7801;48.124;11.590;2024-03-23T03:47:30;94696.16;;;11.78;69.43
15405;BME280;7801;48.124;11.590;2024-03-23T03:49:57;94687.84;;;11.70;69.58
15405;BME280;7801;48.124;11.590;2024-03-23T03:52:22;94685.84;;;11.50;70.53
15405;BME280;7801;48.124;11.590;2024-03-23T03:54:48;94676.00;;;11.59;70.10
15405;BME280;7801;48.124;11.590;2024-03-23T03:57:14;94672.25;;;11.60;70.24
15405;BME280;7801;48.124;11.590;2024-03-23T03:59:40;94675.34;;;11.71;69.70
15405;BME280;7801;48.124;11.590;2024-03-23T04:02:05;94670.50;;;11.64;70.04
15405;BME280;7801;48.124;11.590;2024-03-23T04:04:30;94668.03;;;11.59;70.49
15405;BME280;7801;48.124;11.590;2024-03-23T04:07:00;94664.59;;;11.50;70.88
15405;BME280;7801;48.124;11.590;2024-03-23T04:09:25;94665.22;;;11.47;70.79
15405;BME280;7801;48.124;11.590;2024-03-23T04:11:51;94658.00;;;11.74;69.31
15405;BME280;7801;48.124;11.590;2024-03-23T04:14:16;94660.94;;;11.89;68.47
15405;BME280;7801;48.124;11.590;2024-03-23T04:16:41;94658.34;;;11.63;69.66
15405;BME280;7801;48.124;11.590;2024-03-23T04:19:06;94649.69;;;11.75;69.15
15405;BME280;7801;48.124;11.590;2024-03-23T04:21:32;94640.91;;;11.92;68.56
15405;BME280;7801;48.124;11.590;2024-03-23T04:23:57;94634.66;;;11.96;67.50
15405;BME280;7801;48.124;11.590;2024-03-23T04:26:22;94617.94;;;11.96;67.21
15405;BME280;7801;48.124;11.590;2024-03-23T04:28:48;94623.88;;;11.93;67.66
15405;BME280;7801;48.124;11.590;2024-03-23T04:31:13;94625.16;;;11.87;67.64
15405;BME280;7801;48.124;11.590;2024-03-23T04:33:40;94616.06;;;11.88;67.17
15405;BME280;7801;48.124;11.590;2024-03-23T04:36:05;94609.97;;;11.96;66.47
15405;BME280;7801;48.124;11.590;2024-03-23T04:38:32;94606.38;;;11.92;66.71
15405;BME280;7801;48.124;11.590;2024-03-23T04:40:58;94603.56;;;11.88;66.91
15405;BME280;7801;48.124;11.590;2024-03-23T04:43:24;94601.84;;;11.92;66.94
15405;BME280;7801;48.124;11.590;2024-03-23T04:45:50;94593.62;;;12.06;66.19
15405;BME280;7801;48.124;11.590;2024-03-23T04:48:15;94591.59;;;12.12;66.44
15405;BME280;7801;48.124;11.590;2024-03-23T04:50:40;94599.22;;;12.22;66.16
15405;BME280;7801;48.124;11.590;2024-03-23T04:53:06;94593.16;;;12.13;66.36
15405;BME280;7801;48.124;11.590;2024-03-23T04:55:31;94598.63;;;12.08;66.05
15405;BME280;7801;48.124;11.590;2024-03-23T04:57:57;94585.03;;;12.09;66.08
15405;BME280;7801;48.124;11.590;2024-03-23T05:00:22;94588.16;;;12.11;66.53
15405;BME280;7801;48.124;11.590;2024-03-23T05:02:48;94583.00;;;12.06;66.18
15405;BME280;7801;48.124;11.590;2024-03-23T05:05:14;94576.66;;;11.90;66.24
15405;BME280;7801;48.124;11.590;2024-03-23T05:07:39;94575.63;;;11.65;67.55
15405;BME280;7801;48.124;11.590;2024-03-23T05:10:07;94566.44;;;11.62;67.82
15405;BME280;7801;48.124;11.590;2024-03-23T05:12:40;94565.06;;;11.56;67.38
15405;BME280;7801;48.124;11.590;2024-03-23T05:15:06;94563.31;;;11.60;67.32
15405;BME280;7801;48.124;11.590;2024-03-23T05:17:32;94561.16;;;11.45;67.84
15405;BME280;7801;48.124;11.590;2024-03-23T05:19:58;94561.84;;;11.25;68.65
15405;BME280;7801;48.124;11.590;2024-03-23T05:22:23;94562.00;;;11.37;68.28
15405;BME280;7801;48.124;11.590;2024-03-23T05:24:50;94548.41;;;11.30;68.69
15405;BME280;7801;48.124;11.590;2024-03-23T05:27:16;94558.09;;;11.26;68.86
15405;BME280;7801;48.124;11.590;2024-03-23T05:29:42;94561.06;;;11.33;68.31
15405;BME280;7801;48.124;11.590;2024-03-23T05:32:08;94553.16;;;10.98;69.30
15405;BME280;7801;48.124;11.590;2024-03-23T05:34:34;94560.31;;;11.07;68.85
15405;BME280;7801;48.124;11.590;2024-03-23T05:37:00;94559.37;;;11.11;68.86
15405;BME280;7801;48.124;11.590;2024-03-23T05:39:26;94549.38;;;11.08;69.49
15405;BME280;7801;48.124;11.590;2024-03-23T05:41:51;94552.34;;;11.15;68.84
15405;BME280;7801;48.124;11.590;2024-03-23T05:44:16;94558.44;;;11.07;69.18
15405;BME280;7801;48.124;11.590;2024-03-23T05:46:42;94548.28;;;11.18;69.18
15405;BME280;7801;48.124;11.590;2024-03-23T05:49:08;94559.19;;;11.25;69.17
15405;BME280;7801;48.124;11.590;2024-03-23T05:51:33;94552.97;;;11.03;69.71
15405;BME280;7801;48.124;11.590;2024-03-23T05:53:58;94552.66;;;11.14;69.40
15405;BME280;7801;48.124;11.590;2024-03-23T05:56:24;94545.31;;;11.11;68.97
15405;BME280;7801;48.124;11.590;2024-03-23T05:58:51;94542.97;;;11.18;68.65
15405;BME280;7801;48.124;11.590;2024-03-23T06:01:16;94533.63;;;11.03;69.03
15405;BME280;7801;48.124;11.590;2024-03-23T06:03:41;94536.44;;;11.15;68.71
15405;BME280;7801;48.124;11.590;2024-03-23T06:06:10;94528.94;;;11.17;69.02
15405;BME280;7801;48.124;11.590;2024-03-23T06:08:38;94517.03;;;11.23;68.30
15405;BME280;7801;48.124;11.590;2024-03-23T06:11:04;94512.34;;;11.29;68.36
15405;BME280;7801;48.124;11.590;2024-03-23T06:13:31;94519.03;;;11.35;67.99
15405;BME280;7801;48.124;11.590;2024-03-23T06:15:57;94503.66;;;11.49;67.35
15405;BME280;7801;48.124;11.590;2024-03-23T06:18:23;94506.69;;;11.39;68.86
15405;BME280;7801;48.124;11.590;2024-03-23T06:20:49;94507.94;;;11.42;68.77
15405;BME280;7801;48.124;11.590;2024-03-23T06:23:14;94503.56;;;11.37;68.47
15405;BME280;7801;48.124;11.590;2024-03-23T06:25:42;94495.44;;;11.33;68.34
15405;BME280;7801;48.124;11.590;2024-03-23T06:28:07;94492.34;;;11.31;67.65
15405;BME280;7801;48.124;11.590;2024-03-23T06:30:32;94488.59;;;11.24;68.29
15405;BME280;7801;48.124;11.590;2024-03-23T06:32:58;94478.19;;;11.19;67.90
15405;BME280;7801;48.124;11.590;2024-03-23T06:35:23;94477.53;;;11.22;67.70
15405;BME280;7801;48.124;11.590;2024-03-23T06:37:49;94471.41;;;11.30;67.81
15405;BME280;7801;48.124;11.590;2024-03-23T06:40:14;94461.72;;;11.34;68.10
15405;BME280;7801;48.124;11.590;2024-03-23T06:42:39;94457.59;;;11.45;67.67
15405;BME280;7801;48.124;11.590;2024-03-23T06:45:05;94450.53;;;11.49;67.60
15405;BME280;7801;48.124;11.590;2024-03-23T06:47:31;94436.37;;;11.66;67.40
15405;BME280;7801;48.124;11.590;2024-03-23T06:49:56;94416.84;;;11.70;66.94
15405;BME280;7801;48.124;11.590;2024-03-23T06:52:22;94417.59;;;11.80;66.23
15405;BME280;7801;48.124;11.590;2024-03-23T06:54:47;94422.28;;;11.83;65.96
15405;BME280;7801;48.124;11.590;2024-03-23T06:57:12;94419.88;;;11.90;65.35
15405;BME280;7801;48.124;11.590;2024-03-23T06:59:38;94413.72;;;11.98;65.78
15405;BME280;7801;48.124;11.590;2024-03-23T07:02:06;94411.34;;;12.05;65.30
15405;BME280;7801;48.124;11.590;2024-03-23T07:04:34;94410.72;;;12.20;64.75
15405;BME280;7801;48.124;11.590;2024-03-23T07:07:00;94401.25;;;12.31;64.70
15405;BME280;7801;48.124;11.590;2024-03-23T07:09:29;94410.84;;;12.45;64.43
15405;BME280;7801;48.124;11.590;2024-03-23T07:11:55;94400.84;;;12.42;65.38
15405;BME280;7801;48.124;11.590;2024-03-23T07:14:21;94408.09;;;12.53;65.36
15405;BME280;7801;48.124;11.590;2024-03-23T07:16:47;94403.16;;;12.64;65.45
15405;BME280;7801;48.124;11.590;2024-03-23T07:19:16;94408.81;;;12.74;64.54
15405;BME280;7801;48.124;11.590;2024-03-23T07:21:42;94403.97;;;12.89;65.11
15405;BME280;7801;48.124;11.590;2024-03-23T07:24:07;94404.31;;;12.87;64.83
15405;BME280;7801;48.124;11.590;2024-03-23T07:26:33;94399.00;;;12.99;65.29
15405;BME280;7801;48.124;11.590;2024-03-23T07:28:58;94403.00;;;13.05;65.08
15405;BME280;7801;48.124;11.590;2024-03-23T07:31:24;94407.75;;;13.00;66.46
15405;BME280;7801;48.124;11.590;2024-03-23T07:33:51;94409.66;;;13.12;65.59
15405;BME280;7801;48.124;11.590;2024-03-23T07:36:16;94400.63;;;13.25;64.63
15405;BME280;7801;48.124;11.590;2024-03-23T07:38:43;94421.03;;;13.33;65.51
15405;BME280;7801;48.124;11.590;2024-03-23T07:41:15;94430.16;;;13.44;64.12
15405;BME280;7801;48.124;11.590;2024-03-23T07:43:42;94445.25;;;13.64;61.24
15405;BME280;7801;48.124;11.590;2024-03-23T07:46:07;94457.47;;;13.65;63.00
15405;BME280;7801;48.124;11.590;2024-03-23T07:48:33;94476.13;;;13.65;63.85
15405;BME280;7801;48.124;11.590;2024-03-23T07:51:13;94478.34;;;13.63;66.46
15405;BME280;7801;48.124;11.590;2024-03-23T07:53:43;94496.31;;;13.42;70.28
15405;BME280;7801;48.124;11.590;2024-03-23T07:56:11;94522.44;;;13.16;73.97
15405;BME280;7801;48.124;11.590;2024-03-23T07:58:38;94535.09;;;12.98;77.15
15405;BME280;7801;48.124;11.590;2024-03-23T08:01:14;94528.22;;;12.64;79.64
15405;BME280;7801;48.124;11.590;2024-03-23T08:03:41;94529.03;;;12.35;81.68
15405;BME280;7801;48.124;11.590;2024-03-23T08:06:13;94530.84;;;12.22;83.53
15405;BME280;7801;48.124;11.590;2024-03-23T08:08:42;94542.72;;;11.95;86.11
15405;BME280;7801;48.124;11.590;2024-03-23T08:11:08;94552.03;;;11.72;88.91
15405;BME280;7801;48.124;11.590;2024-03-23T08:13:35;94563.34;;;11.43;94.79
15405;BME280;7801;48.124;11.590;2024-03-23T08:16:02;94578.22;;;11.35;98.22
15405;BME280;7801;48.124;11.590;2024-03-23T08:18:28;94561.22;;;11.28;98.76
15405;BME280;7801;48.124;11.590;2024-03-23T08:23:26;94575.16;;;11.16;100.00
15405;BME280;7801;48.124;11.590;2024-03-23T08:25:57;94586.28;;;12.41;100.00
15405;BME280;7801;48.124;11.590;2024-03-23T08:28:22;94597.06;;;12.86;100.00
15405;BME280;7801;48.124;11.590;2024-03-23T08:30:48;94592.91;;;14.08;100.00
15405;BME280;7801;48.124;11.590;2024-03-23T08:33:14;94603.41;;;14.90;100.00
15405;BME280;7801;48.124;11.590;2024-03-23T08:35:41;94624.56;;;15.23;100.00
15405;BME280;7801;48.124;11.590;2024-03-23T08:38:06;94639.44;;;15.64;100.00
15405;BME280;7801;48.124;11.590;2024-03-23T08:40:32;94648.91;;;16.21;100.00
15405;BME280;7801;48.124;11.590;2024-03-23T08:42:57;94669.41;;;16.61;97.03
15405;BME280;7801;48.124;11.590;2024-03-23T08:45:25;94656.19;;;16.36;93.49
15405;BME280;7801;48.124;11.590;2024-03-23T08:47:51;94661.47;;;13.63;99.07
15405;BME280;7801;48.124;11.590;2024-03-23T08:50:18;94677.56;;;12.54;100.00
15405;BME280;7801;48.124;11.590;2024-03-23T08:52:45;94680.87;;;11.40;100.00
15405;BME280;7801;48.124;11.590;2024-03-23T08:55:13;94681.16;;;10.95;100.00
15405;BME280;7801;48.124;11.590;2024-03-23T08:57:38;94693.56;;;10.60;100.00
15405;BME280;7801;48.124;11.590;2024-03-23T09:00:08;94700.22;;;10.41;100.00
15405;BME280;7801;48.124;11.590;2024-03-23T09:02:34;94702.88;;;10.41;100.00
15405;BME280;7801;48.124;11.590;2024-03-23T09:05:01;94713.41;;;10.23;100.00
15405;BME280;7801;48.124;11.590;2024-03-23T09:07:31;94722.81;;;10.07;100.00
15405;BME280;7801;48.124;11.590;2024-03-23T09:09:56;94719.78;;;9.91;100.00
15405;BME280;7801;48.124;11.590;2024-03-23T09:12:24;94723.28;;;9.78;100.00
15405;BME280;7801;48.124;11.590;2024-03-23T09:14:50;94740.81;;;9.88;100.00
15405;BME280;7801;48.124;11.590;2024-03-23T09:17:17;94724.44;;;9.86;100.00
15405;BME280;7801;48.124;11.590;2024-03-23T09:19:43;94717.03;;;9.74;100.00
15405;BME280;7801;48.124;11.590;2024-03-23T09:22:09;94717.19;;;9.78;100.00
15405;BME280;7801;48.124;11.590;2024-03-23T09:24:36;94717.03;;;9.74;100.00
15405;BME280;7801;48.124;11.590;2024-03-23T09:27:03;94721.56;;;9.51;100.00
15405;BME280;7801;48.124;11.590;2024-03-23T09:29:30;94724.69;;;9.53;100.00
15405;BME280;7801;48.124;11.590;2024-03-23T09:31:57;94728.13;;;9.54;100.00
15405;BME280;7801;48.124;11.590;2024-03-23T09:34:22;94720.00;;;9.50;100.00
15405;BME280;7801;48.124;11.590;2024-03-23T09:36:55;94731.41;;;9.59;100.00
15405;BME280;7801;48.124;11.590;2024-03-23T09:39:24;94727.19;;;9.36;100.00
15405;BME280;7801;48.124;11.590;2024-03-23T09:41:49;94745.25;;;9.34;100.00
15405;BME280;7801;48.124;11.590;2024-03-23T09:44:16;94754.44;;;9.14;100.00
15405;BME280;7801;48.124;11.590;2024-03-23T09:46:44;94765.66;;;9.20;100.00
15405;BME280;7801;48.124;11.590;2024-03-23T09:49:12;94755.91;;;9.07;100.00
15405;BME280;7801;48.124;11.590;2024-03-23T09:51:37;94762.97;;;9.11;100.00
15405;BME280;7801;48.124;11.590;2024-03-23T09:54:05;94761.16;;;9.20;100.00
15405;BME280;7801;48.124;11.590;2024-03-23T09:56:33;94773.44;;;9.03;100.00
15405;BME280;7801;48.124;11.590;2024-03-23T09:59:01;94775.41;;;8.97;100.00
15405;BME280;7801;48.124;11.590;2024-03-23T10:01:29;94789.44;;;8.98;100.00
15405;BME280;7801;48.124;11.590;2024-03-23T10:03:55;94786.41;;;8.90;100.00
15405;BME280;7801;48.124;11.590;2024-03-23T10:06:22;94799.62;;;8.90;100.00
15405;BME280;7801;48.124;11.590;2024-03-23T10:08:47;94812.34;;;8.61;100.00
15405;BME280;7801;48.124;11.590;2024-03-23T10:11:15;94820.13;;;8.71;100.00
15405;BME280;7801;48.124;11.590;2024-03-23T10:13:43;94817.84;;;8.51;100.00
15405;BME280;7801;48.124;11.590;2024-03-23T10:16:10;94806.38;;;8.42;100.00
15405;BME280;7801;48.124;11.590;2024-03-23T10:18:43;94807.28;;;8.51;100.00
15405;BME280;7801;48.124;11.590;2024-03-23T10:21:10;94797.25;;;8.34;100.00
15405;BME280;7801;48.124;11.590;2024-03-23T10:23:41;94806.78;;;8.49;100.00
15405;BME280;7801;48.124;11.590;2024-03-23T10:26:22;94802.28;;;8.63;100.00
15405;BME280;7801;48.124;11.590;2024-03-23T10:29:01;94802.16;;;8.54;100.00
15405;BME280;7801;48.124;11.590;2024-03-23T10:31:31;94807.66;;;8.58;100.00
15405;BME280;7801;48.124;11.590;2024-03-23T10:33:59;94812.56;;;8.51;100.00
15405;BME280;7801;48.124;11.590;2024-03-23T10:36:27;94811.56;;;8.60;100.00
15405;BME280;7801;48.124;11.590;2024-03-23T10:38:54;94811.47;;;8.52;100.00
15405;BME280;7801;48.124;11.590;2024-03-23T10:41:19;94812.56;;;8.51;100.00
15405;BME280;7801;48.124;11.590;2024-03-23T10:43:49;94819.09;;;8.53;100.00
15405;BME280;7801;48.124;11.590;2024-03-23T10:46:15;94823.91;;;8.65;100.00
15405;BME280;7801;48.124;11.590;2024-03-23T10:48:41;94838.22;;;8.64;100.00
15405;BME280;7801;48.124;11.590;2024-03-23T10:51:10;94858.78;;;8.67;100.00
15405;BME280;7801;48.124;11.590;2024-03-23T10:53:38;94868.28;;;8.68;100.00
15405;BME280;7801;48.124;11.590;2024-03-23T10:56:05;94863.53;;;8.38;100.00
15405;BME280;7801;48.124;11.590;2024-03-23T11:01:02;94872.25;;;8.19;100.00
15405;BME280;7801;48.124;11.590;2024-03-23T11:03:49;94859.34;;;8.32;100.00
15405;BME280;7801;48.124;11.590;2024-03-23T11:06:41;94873.03;;;8.20;100.00
15405;BME280;7801;48.124;11.590;2024-03-23T11:17:27;94881.53;;;8.17;100.00
15405;BME280;7801;48.124;11.590;2024-03-23T11:20:12;94897.78;;;8.10;100.00
15405;BME280;7801;48.124;11.590;2024-03-23T11:22:42;94900.97;;;8.26;100.00
15405;BME280;7801;48.124;11.590;2024-03-23T11:25:26;94903.72;;;8.35;100.00
15405;BME280;7801;48.124;11.590;2024-03-23T11:30:26;94890.00;;;8.51;100.00
15405;BME280;7801;48.124;11.590;2024-03-23T11:32:54;94870.00;;;8.45;100.00
15405;BME280;7801;48.124;11.590;2024-03-23T11:38:17;94876.72;;;8.84;100.00
15405;BME280;7801;48.124;11.590;2024-03-23T11:40:48;94880.66;;;9.00;100.00
15405;BME280;7801;48.124;11.590;2024-03-23T11:43:19;94882.13;;;8.92;100.00
15405;BME280;7801;48.124;11.590;2024-03-23T11:45:51;94904.38;;;8.91;100.00
15405;BME280;7801;48.124;11.590;2024-03-23T11:48:23;94906.88;;;8.83;100.00
15405;BME280;7801;48.124;11.590;2024-03-23T11:50:55;94897.19;;;8.78;100.00
15405;BME280;7801;48.124;11.590;2024-03-23T11:53:24;94901.81;;;8.86;100.00
15405;BME280;7801;48.124;11.590;2024-03-23T11:56:03;94895.53;;;8.96;100.00
15405;BME280;7801;48.124;11.590;2024-03-23T11:58:34;94880.34;;;8.88;100.00
15405;BME280;7801;48.124;11.590;2024-03-23T12:01:03;94873.13;;;8.93;100.00
15405;BME280;7801;48.124;11.590;2024-03-23T12:03:32;94881.81;;;8.94;100.00
15405;BME280;7801;48.124;11.590;2024-03-23T12:06:01;94876.44;;;9.13;100.00
15405;BME280;7801;48.124;11.590;2024-03-23T12:08:33;94890.53;;;9.22;100.00
15405;BME280;7801;48.124;11.590;2024-03-23T12:11:11;94887.13;;;9.21;100.00
15405;BME280;7801;48.124;11.590;2024-03-23T12:13:39;94888.59;;;9.14;100.00
15405;BME280;7801;48.124;11.590;2024-03-23T12:16:10;94875.56;;;9.04;100.00
15405;BME280;7801;48.124;11.590;2024-03-23T12:18:40;94880.75;;;9.09;100.00
15405;BME280;7801;48.124;11.590;2024-03-23T12:21:06;94877.53;;;9.12;100.00
15405;BME280;7801;48.124;11.590;2024-03-23T12:23:35;94878.37;;;9.21;100.00
15405;BME280;7801;48.124;11.590;2024-03-23T12:26:01;94864.81;;;12.15;100.00
15405;BME280;7801;48.124;11.590;2024-03-23T12:28:31;94858.97;;;13.70;100.00
15405;BME280;7801;48.124;11.590;2024-03-23T12:31:00;94861.84;;;15.30;100.00
15405;BME280;7801;48.124;11.590;2024-03-23T12:33:26;94858.78;;;15.92;95.21
15405;BME280;7801;48.124;11.590;2024-03-23T12:35:54;94850.34;;;16.46;87.52
15405;BME280;7801;48.124;11.590;2024-03-23T12:38:19;94855.91;;;16.53;81.88
15405;BME280;7801;48.124;11.590;2024-03-23T12:40:50;94840.28;;;16.83;80.84
15405;BME280;7801;48.124;11.590;2024-03-23T12:43:18;94859.28;;;16.94;75.62
15405;BME280;7801;48.124;11.590;2024-03-23T12:45:48;94851.09;;;17.02;73.61
15405;BME280;7801;48.124;11.590;2024-03-23T12:48:16;94861.38;;;17.00;56.35
15405;BME280;7801;48.124;11.590;2024-03-23T12:50:41;94854.88;;;17.01;55.52
15405;BME280;7801;48.124;11.590;2024-03-23T12:53:08;94857.19;;;16.71;54.59
15405;BME280;7801;48.124;11.590;2024-03-23T12:55:38;94849.78;;;16.53;53.83
15405;BME280;7801;48.124;11.590;2024-03-23T12:58:05;94856.19;;;16.64;53.45
15405;BME280;7801;48.124;11.590;2024-03-23T13:00:33;94861.91;;;16.34;52.53
15405;BME280;7801;48.124;11.590;2024-03-23T13:02:58;94850.66;;;16.29;53.24
15405;BME280;7801;48.124;11.590;2024-03-23T13:05:25;94851.44;;;16.29;53.89
15405;BME280;7801;48.124;11.590;2024-03-23T13:07:53;94860.91;;;16.55;52.68
15405;BME280;7801;48.124;11.590;2024-03-23T13:10:20;94868.84;;;16.51;52.56
15405;BME280;7801;48.124;11.590;2024-03-23T13:12:48;94872.75;;;15.12;52.56
15405;BME280;7801;48.124;11.590;2024-03-23T13:15:22;94869.50;;;13.37;57.43
15405;BME280;7801;48.124;11.590;2024-03-23T13:18:11;94871.25;;;12.05;62.21
15405;BME280;7801;48.124;11.590;2024-03-23T13:20:39;94853.00;;;10.90;63.99
15405;BME280;7801;48.124;11.590;2024-03-23T13:23:04;94867.12;;;10.37;65.96
15405;BME280;7801;48.124;11.590;2024-03-23T13:25:29;94844.50;;;10.17;65.00
15405;BME280;7801;48.124;11.590;2024-03-23T13:27:58;94847.47;;;9.80;66.51
15405;BME280;7801;48.124;11.590;2024-03-23T13:30:25;94837.62;;;9.72;66.60
15405;BME280;7801;48.124;11.590;2024-03-23T13:32:51;94822.47;;;9.36;68.08
15405;BME280;7801;48.124;11.590;2024-03-23T13:35:17;94829.16;;;9.47;67.88
15405;BME280;7801;48.124;11.590;2024-03-23T13:37:43;94825.06;;;9.63;66.64
15405;BME280;7801;48.124;11.590;2024-03-23T13:40:11;94828.81;;;9.85;65.77
15405;BME280;7801;48.124;11.590;2024-03-23T13:42:38;94838.28;;;9.99;65.24
15405;BME280;7801;48.124;11.590;2024-03-23T13:45:05;94827.25;;;9.84;66.39
15405;BME280;7801;48.124;11.590;2024-03-23T13:47:33;94833.59;;;9.60;67.55
15405;BME280;7801;48.124;11.590;2024-03-23T13:49:59;94849.63;;;9.42;66.82
15405;BME280;7801;48.124;11.590;2024-03-23T13:52:27;94841.75;;;9.64;66.02
15405;BME280;7801;48.124;11.590;2024-03-23T13:54:53;94849.53;;;9.47;68.46
15405;BME280;7801;48.124;11.590;2024-03-23T13:57:22;94845.22;;;9.37;69.25
15405;BME280;7801;48.124;11.590;2024-03-23T13:59:50;94846.97;;;9.55;68.28
15405;BME280;7801;48.124;11.590;2024-03-23T14:02:29;94865.22;;;9.43;69.40
15405;BME280;7801;48.124;11.590;2024-03-23T14:04:54;94902.91;;;9.13;74.18
15405;BME280;7801;48.124;11.590;2024-03-23T14:07:24;94927.13;;;8.74;79.94
15405;BME280;7801;48.124;11.590;2024-03-23T14:09:51;94925.75;;;8.30;83.99